sensor_id;sensor_type;location;lat;lon;timestamp;P1;durP1;ratioP1;P2;durP2;ratioP2
21233;SDS011;10774;42.178;26.578;2023-05-07T00:01:41;16.20;;;6.88;;
21233;SDS011;10774;42.178;26.578;2023-05-07T00:04:07;13.15;;;6.35;;
21233;SDS011;10774;42.178;26.578;2023-05-07T00:06:32;11.00;;;5.90;;
21233;SDS011;10774;42.178;26.578;2023-05-07T00:08:58;8.70;;;5.80;;
21233;SDS011;10774;42.178;26.578;2023-05-07T00:11:24;8.95;;;6.20;;
21233;SDS011;10774;42.178;26.578;2023-05-07T00:13:51;12.52;;;5.78;;
21233;SDS011;10774;42.178;26.578;2023-05-07T00:16:16;9.48;;;5.65;;
21233;SDS011;10774;42.178;26.578;2023-05-07T00:18:42;9.93;;;5.57;;
21233;SDS011;10774;42.178;26.578;2023-05-07T00:21:07;7.50;;;5.15;;
21233;SDS011;10774;42.178;26.578;2023-05-07T00:23:32;7.05;;;5.40;;
21233;SDS011;10774;42.178;26.578;2023-05-07T00:25:58;8.50;;;4.80;;
21233;SDS011;10774;42.178;26.578;2023-05-07T00:28:23;9.85;;;6.00;;
21233;SDS011;10774;42.178;26.578;2023-05-07T00:30:49;9.80;;;6.68;;
21233;SDS011;10774;42.178;26.578;2023-05-07T00:33:14;11.45;;;6.65;;
21233;SDS011;10774;42.178;26.578;2023-05-07T00:35:40;10.75;;;6.07;;
21233;SDS011;10774;42.178;26.578;2023-05-07T00:38:05;10.00;;;5.63;;
21233;SDS011;10774;42.178;26.578;2023-05-07T00:40:31;8.95;;;5.65;;
21233;SDS011;10774;42.178;26.578;2023-05-07T00:42:56;8.80;;;5.00;;
21233;SDS011;10774;42.178;26.578;2023-05-07T00:45:23;7.35;;;5.22;;
21233;SDS011;10774;42.178;26.578;2023-05-07T00:47:54;9.82;;;5.22;;
21233;SDS011;10774;42.178;26.578;2023-05-07T00:50:24;8.13;;;5.15;;
21233;SDS011;10774;42.178;26.578;2023-05-07T00:52:51;7.68;;;4.88;;
21233;SDS011;10774;42.178;26.578;2023-05-07T00:55:17;9.93;;;5.57;;
21233;SDS011;10774;42.178;26.578;2023-05-07T00:57:43;10.25;;;5.45;;
21233;SDS011;10774;42.178;26.578;2023-05-07T01:02:44;8.57;;;5.57;;
21233;SDS011;10774;42.178;26.578;2023-05-07T01:05:12;6.78;;;4.93;;
21233;SDS011;10774;42.178;26.578;2023-05-07T01:07:39;8.90;;;5.00;;
21233;SDS011;10774;42.178;26.578;2023-05-07T01:10:06;10.25;;;5.50;;
21233;SDS011;10774;42.178;26.578;2023-05-07T01:12:33;8.35;;;5.45;;
21233;SDS011;10774;42.178;26.578;2023-05-07T01:15:00;8.07;;;5.47;;
21233;SDS011;10774;42.178;26.578;2023-05-07T01:17:26;9.35;;;6.30;;
21233;SDS011;10774;42.178;26.578;2023-05-07T01:19:52;10.23;;;6.55;;
21233;SDS011;10774;42.178;26.578;2023-05-07T01:22:25;10.20;;;5.68;;
21233;SDS011;10774;42.178;26.578;2023-05-07T01:24:56;9.02;;;5.97;;
21233;SDS011;10774;42.178;26.578;2023-05-07T01:27:21;9.80;;;5.47;;
21233;SDS011;10774;42.178;26.578;2023-05-07T01:29:46;8.82;;;5.05;;
21233;SDS011;10774;42.178;26.578;2023-05-07T01:32:12;8.30;;;5.10;;
21233;SDS011;10774;42.178;26.578;2023-05-07T01:34:40;8.13;;;5.18;;
21233;SDS011;10774;42.178;26.578;2023-05-07T01:37:06;8.10;;;5.07;;
21233;SDS011;10774;42.178;26.578;2023-05-07T01:39:31;9.82;;;5.60;;
21233;SDS011;10774;42.178;26.578;2023-05-07T01:41:57;7.38;;;5.15;;
21233;SDS011;10774;42.178;26.578;2023-05-07T01:44:24;9.23;;;5.05;;
21233;SDS011;10774;42.178;26.578;2023-05-07T01:46:51;10.68;;;5.28;;
21233;SDS011;10774;42.178;26.578;2023-05-07T01:49:17;9.07;;;5.47;;
21233;SDS011;10774;42.178;26.578;2023-05-07T01:51:43;9.25;;;5.60;;
21233;SDS011;10774;42.178;26.578;2023-05-07T01:54:09;8.88;;;5.70;;
21233;SDS011;10774;42.178;26.578;2023-05-07T01:56:34;9.07;;;5.47;;
21233;SDS011;10774;42.178;26.578;2023-05-07T01:59:00;9.50;;;5.78;;
21233;SDS011;10774;42.178;26.578;2023-05-07T02:01:27;7.93;;;5.93;;
21233;SDS011;10774;42.178;26.578;2023-05-07T02:03:52;9.27;;;5.40;;
21233;SDS011;10774;42.178;26.578;2023-05-07T02:06:18;8.13;;;5.70;;
21233;SDS011;10774;42.178;26.578;2023-05-07T02:08:44;8.48;;;5.60;;
21233;SDS011;10774;42.178;26.578;2023-05-07T02:11:10;11.45;;;5.93;;
21233;SDS011;10774;42.178;26.578;2023-05-07T02:13:35;6.35;;;4.93;;
21233;SDS011;10774;42.178;26.578;2023-05-07T02:16:01;8.02;;;4.63;;
21233;SDS011;10774;42.178;26.578;2023-05-07T02:18:27;8.82;;;4.80;;
21233;SDS011;10774;42.178;26.578;2023-05-07T02:20:53;7.55;;;5.05;;
21233;SDS011;10774;42.178;26.578;2023-05-07T02:23:18;6.47;;;4.78;;
21233;SDS011;10774;42.178;26.578;2023-05-07T02:25:43;13.07;;;5.05;;
21233;SDS011;10774;42.178;26.578;2023-05-07T02:28:09;6.20;;;4.78;;
21233;SDS011;10774;42.178;26.578;2023-05-07T02:30:35;6.97;;;4.78;;
21233;SDS011;10774;42.178;26.578;2023-05-07T02:33:02;5.43;;;4.13;;
21233;SDS011;10774;42.178;26.578;2023-05-07T02:35:27;7.05;;;4.53;;
21233;SDS011;10774;42.178;26.578;2023-05-07T02:37:53;8.70;;;4.97;;
21233;SDS011;10774;42.178;26.578;2023-05-07T02:40:18;6.57;;;5.43;;
21233;SDS011;10774;42.178;26.578;2023-05-07T02:42:43;8.25;;;5.40;;
21233;SDS011;10774;42.178;26.578;2023-05-07T02:45:09;9.05;;;5.43;;
21233;SDS011;10774;42.178;26.578;2023-05-07T02:47:35;8.82;;;5.32;;
21233;SDS011;10774;42.178;26.578;2023-05-07T02:50:00;9.52;;;5.68;;
21233;SDS011;10774;42.178;26.578;2023-05-07T02:52:26;8.10;;;5.38;;
21233;SDS011;10774;42.178;26.578;2023-05-07T02:54:51;11.57;;;5.43;;
21233;SDS011;10774;42.178;26.578;2023-05-07T02:57:17;12.38;;;6.30;;
21233;SDS011;10774;42.178;26.578;2023-05-07T02:59:42;11.02;;;6.15;;
21233;SDS011;10774;42.178;26.578;2023-05-07T03:02:08;8.82;;;5.68;;
21233;SDS011;10774;42.178;26.578;2023-05-07T03:04:34;7.50;;;5.88;;
21233;SDS011;10774;42.178;26.578;2023-05-07T03:06:59;11.98;;;5.68;;
21233;SDS011;10774;42.178;26.578;2023-05-07T03:09:25;7.93;;;5.70;;
21233;SDS011;10774;42.178;26.578;2023-05-07T03:11:51;9.23;;;5.68;;
21233;SDS011;10774;42.178;26.578;2023-05-07T03:14:16;12.70;;;5.70;;
21233;SDS011;10774;42.178;26.578;2023-05-07T03:16:42;8.95;;;5.70;;
21233;SDS011;10774;42.178;26.578;2023-05-07T03:19:07;9.50;;;5.68;;
21233;SDS011;10774;42.178;26.578;2023-05-07T03:21:33;9.02;;;5.72;;
21233;SDS011;10774;42.178;26.578;2023-05-07T03:23:59;11.90;;;6.00;;
21233;SDS011;10774;42.178;26.578;2023-05-07T03:26:25;7.15;;;5.82;;
21233;SDS011;10774;42.178;26.578;2023-05-07T03:28:51;6.70;;;5.18;;
21233;SDS011;10774;42.178;26.578;2023-05-07T03:31:16;7.15;;;5.25;;
21233;SDS011;10774;42.178;26.578;2023-05-07T03:33:49;6.25;;;5.30;;
21233;SDS011;10774;42.178;26.578;2023-05-07T03:36:19;9.00;;;5.28;;
21233;SDS011;10774;42.178;26.578;2023-05-07T03:38:45;7.18;;;5.40;;
21233;SDS011;10774;42.178;26.578;2023-05-07T03:41:11;12.95;;;6.80;;
21233;SDS011;10774;42.178;26.578;2023-05-07T03:43:37;8.85;;;5.80;;
21233;SDS011;10774;42.178;26.578;2023-05-07T03:46:03;7.28;;;5.60;;
21233;SDS011;10774;42.178;26.578;2023-05-07T03:48:28;8.30;;;6.47;;
21233;SDS011;10774;42.178;26.578;2023-05-07T03:50:53;12.80;;;6.72;;
21233;SDS011;10774;42.178;26.578;2023-05-07T03:53:19;8.95;;;6.20;;
21233;SDS011;10774;42.178;26.578;2023-05-07T03:55:44;12.73;;;6.35;;
21233;SDS011;10774;42.178;26.578;2023-05-07T03:58:10;9.00;;;5.85;;
21233;SDS011;10774;42.178;26.578;2023-05-07T04:00:35;13.65;;;8.15;;
21233;SDS011;10774;42.178;26.578;2023-05-07T04:03:03;11.02;;;7.80;;
21233;SDS011;10774;42.178;26.578;2023-05-07T04:05:29;25.65;;;19.90;;
21233;SDS011;10774;42.178;26.578;2023-05-07T04:07:55;24.85;;;17.30;;
21233;SDS011;10774;42.178;26.578;2023-05-07T04:10:22;16.05;;;10.82;;
21233;SDS011;10774;42.178;26.578;2023-05-07T04:12:47;13.55;;;8.88;;
21233;SDS011;10774;42.178;26.578;2023-05-07T04:15:13;10.70;;;9.05;;
21233;SDS011;10774;42.178;26.578;2023-05-07T04:17:38;12.77;;;8.68;;
21233;SDS011;10774;42.178;26.578;2023-05-07T04:20:05;9.80;;;8.05;;
21233;SDS011;10774;42.178;26.578;2023-05-07T04:22:32;13.20;;;7.57;;
21233;SDS011;10774;42.178;26.578;2023-05-07T04:24:57;12.00;;;7.25;;
21233;SDS011;10774;42.178;26.578;2023-05-07T04:27:23;8.27;;;6.18;;
21233;SDS011;10774;42.178;26.578;2023-05-07T04:29:48;7.43;;;6.13;;
21233;SDS011;10774;42.178;26.578;2023-05-07T04:32:13;8.43;;;6.10;;
21233;SDS011;10774;42.178;26.578;2023-05-07T04:34:39;10.82;;;5.70;;
21233;SDS011;10774;42.178;26.578;2023-05-07T04:37:04;11.60;;;6.75;;
21233;SDS011;10774;42.178;26.578;2023-05-07T04:39:30;8.50;;;6.05;;
21233;SDS011;10774;42.178;26.578;2023-05-07T04:41:55;12.30;;;6.43;;
21233;SDS011;10774;42.178;26.578;2023-05-07T04:44:21;8.90;;;5.53;;
21233;SDS011;10774;42.178;26.578;2023-05-07T04:46:46;9.43;;;6.15;;
21233;SDS011;10774;42.178;26.578;2023-05-07T04:49:12;10.50;;;6.55;;
21233;SDS011;10774;42.178;26.578;2023-05-07T04:51:37;7.53;;;5.55;;
21233;SDS011;10774;42.178;26.578;2023-05-07T04:54:03;8.55;;;4.57;;
21233;SDS011;10774;42.178;26.578;2023-05-07T04:56:29;7.88;;;5.55;;
21233;SDS011;10774;42.178;26.578;2023-05-07T04:58:55;8.20;;;5.18;;
21233;SDS011;10774;42.178;26.578;2023-05-07T05:01:20;7.72;;;4.85;;
21233;SDS011;10774;42.178;26.578;2023-05-07T05:03:46;7.35;;;4.80;;
21233;SDS011;10774;42.178;26.578;2023-05-07T05:06:11;7.03;;;4.80;;
21233;SDS011;10774;42.178;26.578;2023-05-07T05:08:37;8.38;;;4.72;;
21233;SDS011;10774;42.178;26.578;2023-05-07T05:11:02;9.23;;;4.65;;
21233;SDS011;10774;42.178;26.578;2023-05-07T05:13:28;5.00;;;4.22;;
21233;SDS011;10774;42.178;26.578;2023-05-07T05:15:53;8.00;;;4.13;;
21233;SDS011;10774;42.178;26.578;2023-05-07T05:18:18;5.43;;;4.75;;
21233;SDS011;10774;42.178;26.578;2023-05-07T05:20:44;16.88;;;5.88;;
21233;SDS011;10774;42.178;26.578;2023-05-07T05:23:09;6.13;;;4.30;;
21233;SDS011;10774;42.178;26.578;2023-05-07T05:25:35;5.05;;;3.80;;
21233;SDS011;10774;42.178;26.578;2023-05-07T05:28:00;4.70;;;4.10;;
21233;SDS011;10774;42.178;26.578;2023-05-07T05:30:26;5.40;;;3.83;;
21233;SDS011;10774;42.178;26.578;2023-05-07T05:32:51;7.82;;;4.05;;
21233;SDS011;10774;42.178;26.578;2023-05-07T05:35:17;8.05;;;3.40;;
21233;SDS011;10774;42.178;26.578;2023-05-07T05:37:42;4.57;;;3.63;;
21233;SDS011;10774;42.178;26.578;2023-05-07T05:40:07;6.28;;;3.40;;
21233;SDS011;10774;42.178;26.578;2023-05-07T05:42:33;9.82;;;4.10;;
21233;SDS011;10774;42.178;26.578;2023-05-07T05:44:58;8.00;;;3.90;;
21233;SDS011;10774;42.178;26.578;2023-05-07T05:47:24;6.03;;;3.53;;
21233;SDS011;10774;42.178;26.578;2023-05-07T05:49:49;4.63;;;3.50;;
21233;SDS011;10774;42.178;26.578;2023-05-07T05:52:15;3.83;;;2.72;;
21233;SDS011;10774;42.178;26.578;2023-05-07T05:54:41;7.47;;;3.70;;
21233;SDS011;10774;42.178;26.578;2023-05-07T05:57:07;6.70;;;3.10;;
21233;SDS011;10774;42.178;26.578;2023-05-07T05:59:32;6.13;;;3.88;;
21233;SDS011;10774;42.178;26.578;2023-05-07T06:01:58;4.60;;;2.78;;
21233;SDS011;10774;42.178;26.578;2023-05-07T06:04:23;6.38;;;3.15;;
21233;SDS011;10774;42.178;26.578;2023-05-07T06:06:48;4.70;;;3.10;;
21233;SDS011;10774;42.178;26.578;2023-05-07T06:09:14;2.88;;;2.35;;
21233;SDS011;10774;42.178;26.578;2023-05-07T06:11:39;3.22;;;2.38;;
21233;SDS011;10774;42.178;26.578;2023-05-07T06:14:06;3.38;;;2.00;;
21233;SDS011;10774;42.178;26.578;2023-05-07T06:16:31;5.68;;;2.25;;
21233;SDS011;10774;42.178;26.578;2023-05-07T06:18:57;8.75;;;2.75;;
21233;SDS011;10774;42.178;26.578;2023-05-07T06:21:22;8.00;;;2.42;;
21233;SDS011;10774;42.178;26.578;2023-05-07T06:23:47;4.35;;;2.25;;
21233;SDS011;10774;42.178;26.578;2023-05-07T06:26:13;2.70;;;1.77;;
21233;SDS011;10774;42.178;26.578;2023-05-07T06:28:38;4.88;;;1.90;;
21233;SDS011;10774;42.178;26.578;2023-05-07T06:31:17;5.40;;;2.28;;
21233;SDS011;10774;42.178;26.578;2023-05-07T06:33:45;6.20;;;2.15;;
21233;SDS011;10774;42.178;26.578;2023-05-07T06:36:11;5.35;;;1.88;;
21233;SDS011;10774;42.178;26.578;2023-05-07T06:38:36;3.03;;;1.70;;
21233;SDS011;10774;42.178;26.578;2023-05-07T06:41:02;5.50;;;2.00;;
21233;SDS011;10774;42.178;26.578;2023-05-07T06:43:27;8.35;;;1.90;;
21233;SDS011;10774;42.178;26.578;2023-05-07T06:45:52;4.53;;;1.65;;
21233;SDS011;10774;42.178;26.578;2023-05-07T06:48:18;5.97;;;2.58;;
21233;SDS011;10774;42.178;26.578;2023-05-07T06:50:43;5.18;;;1.75;;
21233;SDS011;10774;42.178;26.578;2023-05-07T06:53:09;3.22;;;1.50;;
21233;SDS011;10774;42.178;26.578;2023-05-07T06:55:34;8.85;;;1.83;;
21233;SDS011;10774;42.178;26.578;2023-05-07T06:58:00;4.05;;;2.10;;
21233;SDS011;10774;42.178;26.578;2023-05-07T07:00:28;2.78;;;1.67;;
21233;SDS011;10774;42.178;26.578;2023-05-07T07:02:54;4.40;;;1.65;;
21233;SDS011;10774;42.178;26.578;2023-05-07T07:05:20;4.03;;;1.95;;
21233;SDS011;10774;42.178;26.578;2023-05-07T07:07:46;2.63;;;1.63;;
21233;SDS011;10774;42.178;26.578;2023-05-07T07:10:18;6.25;;;1.63;;
21233;SDS011;10774;42.178;26.578;2023-05-07T07:12:46;4.97;;;1.60;;
21233;SDS011;10774;42.178;26.578;2023-05-07T07:15:12;1.88;;;1.35;;
21233;SDS011;10774;42.178;26.578;2023-05-07T07:17:38;4.15;;;1.42;;
21233;SDS011;10774;42.178;26.578;2023-05-07T07:20:04;3.95;;;1.70;;
21233;SDS011;10774;42.178;26.578;2023-05-07T07:22:30;2.58;;;1.40;;
21233;SDS011;10774;42.178;26.578;2023-05-07T07:24:55;3.05;;;1.60;;
21233;SDS011;10774;42.178;26.578;2023-05-07T07:27:21;3.78;;;1.60;;
21233;SDS011;10774;42.178;26.578;2023-05-07T07:29:46;3.35;;;1.60;;
21233;SDS011;10774;42.178;26.578;2023-05-07T07:32:12;5.40;;;1.67;;
21233;SDS011;10774;42.178;26.578;2023-05-07T07:34:37;4.60;;;1.38;;
21233;SDS011;10774;42.178;26.578;2023-05-07T07:37:03;6.05;;;1.85;;
21233;SDS011;10774;42.178;26.578;2023-05-07T07:39:31;1.48;;;1.02;;
21233;SDS011;10774;42.178;26.578;2023-05-07T07:41:57;6.07;;;1.58;;
21233;SDS011;10774;42.178;26.578;2023-05-07T07:44:22;5.30;;;1.73;;
21233;SDS011;10774;42.178;26.578;2023-05-07T07:46:48;2.10;;;1.27;;
21233;SDS011;10774;42.178;26.578;2023-05-07T07:49:14;3.92;;;1.50;;
21233;SDS011;10774;42.178;26.578;2023-05-07T07:51:40;2.63;;;1.35;;
21233;SDS011;10774;42.178;26.578;2023-05-07T07:54:05;5.95;;;1.85;;
21233;SDS011;10774;42.178;26.578;2023-05-07T07:56:32;3.38;;;1.30;;
21233;SDS011;10774;42.178;26.578;2023-05-07T07:58:58;2.60;;;1.52;;
21233;SDS011;10774;42.178;26.578;2023-05-07T08:01:24;2.47;;;1.30;;
21233;SDS011;10774;42.178;26.578;2023-05-07T08:03:54;5.35;;;1.48;;
21233;SDS011;10774;42.178;26.578;2023-05-07T08:06:20;5.97;;;1.30;;
21233;SDS011;10774;42.178;26.578;2023-05-07T08:08:45;6.22;;;1.92;;
21233;SDS011;10774;42.178;26.578;2023-05-07T08:11:10;3.88;;;1.23;;
21233;SDS011;10774;42.178;26.578;2023-05-07T08:13:36;6.80;;;2.63;;
21233;SDS011;10774;42.178;26.578;2023-05-07T08:16:03;3.33;;;1.40;;
21233;SDS011;10774;42.178;26.578;2023-05-07T08:18:30;4.35;;;1.40;;
21233;SDS011;10774;42.178;26.578;2023-05-07T08:20:56;4.78;;;1.48;;
21233;SDS011;10774;42.178;26.578;2023-05-07T08:23:21;4.15;;;1.70;;
21233;SDS011;10774;42.178;26.578;2023-05-07T08:25:48;9.40;;;1.65;;
21233;SDS011;10774;42.178;26.578;2023-05-07T08:28:14;3.78;;;1.77;;
21233;SDS011;10774;42.178;26.578;2023-05-07T08:30:39;2.80;;;1.58;;
21233;SDS011;10774;42.178;26.578;2023-05-07T08:33:05;2.30;;;1.63;;
21233;SDS011;10774;42.178;26.578;2023-05-07T08:35:31;4.20;;;1.35;;
21233;SDS011;10774;42.178;26.578;2023-05-07T08:37:56;4.57;;;1.58;;
21233;SDS011;10774;42.178;26.578;2023-05-07T08:40:25;5.55;;;1.48;;
21233;SDS011;10774;42.178;26.578;2023-05-07T08:42:52;5.00;;;1.20;;
21233;SDS011;10774;42.178;26.578;2023-05-07T08:45:19;3.03;;;1.38;;
21233;SDS011;10774;42.178;26.578;2023-05-07T08:47:51;4.50;;;1.50;;
21233;SDS011;10774;42.178;26.578;2023-05-07T08:50:23;3.90;;;1.17;;
21233;SDS011;10774;42.178;26.578;2023-05-07T08:52:49;6.70;;;1.45;;
21233;SDS011;10774;42.178;26.578;2023-05-07T08:55:14;3.40;;;1.42;;
21233;SDS011;10774;42.178;26.578;2023-05-07T08:57:40;4.65;;;1.13;;
21233;SDS011;10774;42.178;26.578;2023-05-07T09:00:06;4.30;;;2.15;;
21233;SDS011;10774;42.178;26.578;2023-05-07T09:02:32;4.05;;;1.42;;
21233;SDS011;10774;42.178;26.578;2023-05-07T09:04:58;6.60;;;1.92;;
21233;SDS011;10774;42.178;26.578;2023-05-07T09:07:24;2.97;;;1.70;;
21233;SDS011;10774;42.178;26.578;2023-05-07T09:09:50;3.20;;;1.40;;
21233;SDS011;10774;42.178;26.578;2023-05-07T09:12:17;3.45;;;1.70;;
21233;SDS011;10774;42.178;26.578;2023-05-07T09:14:44;6.72;;;1.73;;
21233;SDS011;10774;42.178;26.578;2023-05-07T09:17:10;3.05;;;1.63;;
21233;SDS011;10774;42.178;26.578;2023-05-07T09:19:36;6.63;;;2.45;;
21233;SDS011;10774;42.178;26.578;2023-05-07T09:22:02;5.47;;;3.15;;
21233;SDS011;10774;42.178;26.578;2023-05-07T09:24:29;8.43;;;1.85;;
21233;SDS011;10774;42.178;26.578;2023-05-07T09:26:59;5.20;;;1.90;;
21233;SDS011;10774;42.178;26.578;2023-05-07T09:29:26;8.07;;;1.88;;
21233;SDS011;10774;42.178;26.578;2023-05-07T09:31:54;1.63;;;1.20;;
21233;SDS011;10774;42.178;26.578;2023-05-07T09:34:19;2.33;;;1.50;;
21233;SDS011;10774;42.178;26.578;2023-05-07T09:36:45;4.75;;;1.38;;
21233;SDS011;10774;42.178;26.578;2023-05-07T09:39:11;1.88;;;1.15;;
21233;SDS011;10774;42.178;26.578;2023-05-07T09:41:44;3.50;;;1.30;;
21233;SDS011;10774;42.178;26.578;2023-05-07T09:44:11;1.67;;;1.10;;
21233;SDS011;10774;42.178;26.578;2023-05-07T09:46:38;5.95;;;1.38;;
21233;SDS011;10774;42.178;26.578;2023-05-07T09:49:07;2.35;;;1.13;;
21233;SDS011;10774;42.178;26.578;2023-05-07T09:54:10;5.35;;;1.50;;
21233;SDS011;10774;42.178;26.578;2023-05-07T09:56:36;3.72;;;1.25;;
21233;SDS011;10774;42.178;26.578;2023-05-07T09:59:03;8.20;;;2.25;;
21233;SDS011;10774;42.178;26.578;2023-05-07T10:01:32;5.25;;;2.13;;
21233;SDS011;10774;42.178;26.578;2023-05-07T10:04:01;3.30;;;1.73;;
21233;SDS011;10774;42.178;26.578;2023-05-07T10:06:29;6.35;;;1.70;;
21233;SDS011;10774;42.178;26.578;2023-05-07T10:08:55;5.88;;;1.77;;
21233;SDS011;10774;42.178;26.578;2023-05-07T10:11:21;7.32;;;1.90;;
21233;SDS011;10774;42.178;26.578;2023-05-07T10:13:47;4.80;;;1.55;;
21233;SDS011;10774;42.178;26.578;2023-05-07T10:16:13;4.20;;;1.48;;
21233;SDS011;10774;42.178;26.578;2023-05-07T10:18:42;2.92;;;1.52;;
21233;SDS011;10774;42.178;26.578;2023-05-07T10:21:14;3.50;;;1.58;;
21233;SDS011;10774;42.178;26.578;2023-05-07T10:23:50;5.15;;;2.17;;
21233;SDS011;10774;42.178;26.578;2023-05-07T10:26:22;4.10;;;1.45;;
21233;SDS011;10774;42.178;26.578;2023-05-07T10:28:50;5.05;;;1.20;;
21233;SDS011;10774;42.178;26.578;2023-05-07T10:33:53;3.55;;;1.45;;
21233;SDS011;10774;42.178;26.578;2023-05-07T10:36:21;4.88;;;1.30;;
21233;SDS011;10774;42.178;26.578;2023-05-07T10:38:47;2.03;;;1.20;;
21233;SDS011;10774;42.178;26.578;2023-05-07T10:41:13;4.75;;;1.00;;
21233;SDS011;10774;42.178;26.578;2023-05-07T10:43:43;2.60;;;1.08;;
21233;SDS011;10774;42.178;26.578;2023-05-07T10:46:17;3.55;;;1.27;;
21233;SDS011;10774;42.178;26.578;2023-05-07T10:51:28;8.40;;;1.60;;
21233;SDS011;10774;42.178;26.578;2023-05-07T10:54:40;6.25;;;1.45;;
21233;SDS011;10774;42.178;26.578;2023-05-07T10:56:44;3.90;;;1.67;;
21233;SDS011;10774;42.178;26.578;2023-05-07T11:01:55;3.15;;;1.48;;
21233;SDS011;10774;42.178;26.578;2023-05-07T11:04:21;3.97;;;1.13;;
21233;SDS011;10774;42.178;26.578;2023-05-07T11:12:16;2.17;;;1.27;;
21233;SDS011;10774;42.178;26.578;2023-05-07T11:14:43;2.85;;;0.85;;
21233;SDS011;10774;42.178;26.578;2023-05-07T11:17:09;4.68;;;1.50;;
21233;SDS011;10774;42.178;26.578;2023-05-07T11:19:49;2.90;;;1.20;;
21233;SDS011;10774;42.178;26.578;2023-05-07T11:24:56;6.35;;;1.27;;
21233;SDS011;10774;42.178;26.578;2023-05-07T11:27:25;1.50;;;1.00;;
21233;SDS011;10774;42.178;26.578;2023-05-07T11:29:51;2.75;;;1.33;;
21233;SDS011;10774;42.178;26.578;2023-05-07T11:32:22;4.68;;;1.27;;
21233;SDS011;10774;42.178;26.578;2023-05-07T11:34:51;2.28;;;1.20;;
21233;SDS011;10774;42.178;26.578;2023-05-07T11:37:18;2.85;;;1.30;;
21233;SDS011;10774;42.178;26.578;2023-05-07T11:39:44;3.67;;;1.15;;
21233;SDS011;10774;42.178;26.578;2023-05-07T11:42:28;3.15;;;0.90;;
21233;SDS011;10774;42.178;26.578;2023-05-07T11:44:58;1.85;;;0.95;;
21233;SDS011;10774;42.178;26.578;2023-05-07T11:47:24;3.70;;;1.20;;
21233;SDS011;10774;42.178;26.578;2023-05-07T11:49:53;2.65;;;1.15;;
21233;SDS011;10774;42.178;26.578;2023-05-07T11:52:19;7.70;;;1.33;;
21233;SDS011;10774;42.178;26.578;2023-05-07T11:54:55;3.33;;;1.13;;
21233;SDS011;10774;42.178;26.578;2023-05-07T11:57:25;3.88;;;1.20;;
21233;SDS011;10774;42.178;26.578;2023-05-07T12:02:20;4.00;;;1.55;;
21233;SDS011;10774;42.178;26.578;2023-05-07T12:04:45;4.82;;;1.60;;
21233;SDS011;10774;42.178;26.578;2023-05-07T12:07:11;5.55;;;1.30;;
21233;SDS011;10774;42.178;26.578;2023-05-07T12:09:38;2.42;;;1.30;;
21233;SDS011;10774;42.178;26.578;2023-05-07T12:12:05;4.97;;;1.52;;
21233;SDS011;10774;42.178;26.578;2023-05-07T12:14:30;4.60;;;2.42;;
21233;SDS011;10774;42.178;26.578;2023-05-07T12:16:57;19.35;;;8.05;;
21233;SDS011;10774;42.178;26.578;2023-05-07T12:19:27;5.07;;;2.00;;
21233;SDS011;10774;42.178;26.578;2023-05-07T12:21:54;5.15;;;2.25;;
21233;SDS011;10774;42.178;26.578;2023-05-07T12:24:19;3.47;;;1.25;;
21233;SDS011;10774;42.178;26.578;2023-05-07T12:26:46;6.25;;;3.60;;
21233;SDS011;10774;42.178;26.578;2023-05-07T12:29:11;16.23;;;6.45;;
21233;SDS011;10774;42.178;26.578;2023-05-07T12:31:39;9.23;;;4.20;;
21233;SDS011;10774;42.178;26.578;2023-05-07T12:34:06;3.85;;;1.70;;
21233;SDS011;10774;42.178;26.578;2023-05-07T12:36:38;5.00;;;2.00;;
21233;SDS011;10774;42.178;26.578;2023-05-07T12:39:05;4.40;;;1.98;;
21233;SDS011;10774;42.178;26.578;2023-05-07T12:41:51;3.13;;;1.10;;
21233;SDS011;10774;42.178;26.578;2023-05-07T12:44:25;5.30;;;1.50;;
21233;SDS011;10774;42.178;26.578;2023-05-07T12:46:53;5.60;;;1.35;;
21233;SDS011;10774;42.178;26.578;2023-05-07T12:49:19;4.90;;;1.67;;
21233;SDS011;10774;42.178;26.578;2023-05-07T12:51:46;7.35;;;3.10;;
21233;SDS011;10774;42.178;26.578;2023-05-07T12:54:13;5.40;;;1.85;;
21233;SDS011;10774;42.178;26.578;2023-05-07T12:56:39;3.88;;;1.75;;
21233;SDS011;10774;42.178;26.578;2023-05-07T12:59:04;8.20;;;2.38;;
21233;SDS011;10774;42.178;26.578;2023-05-07T13:01:30;5.90;;;2.80;;
21233;SDS011;10774;42.178;26.578;2023-05-07T13:04:02;4.15;;;1.50;;
21233;SDS011;10774;42.178;26.578;2023-05-07T13:06:29;6.25;;;1.55;;
21233;SDS011;10774;42.178;26.578;2023-05-07T13:08:56;4.55;;;1.60;;
21233;SDS011;10774;42.178;26.578;2023-05-07T13:11:21;4.18;;;1.48;;
21233;SDS011;10774;42.178;26.578;2023-05-07T13:13:47;7.85;;;1.30;;
21233;SDS011;10774;42.178;26.578;2023-05-07T13:16:13;9.90;;;1.77;;
21233;SDS011;10774;42.178;26.578;2023-05-07T13:18:38;8.70;;;1.60;;
21233;SDS011;10774;42.178;26.578;2023-05-07T13:21:05;2.97;;;1.45;;
21233;SDS011;10774;42.178;26.578;2023-05-07T13:23:30;3.13;;;1.33;;
21233;SDS011;10774;42.178;26.578;2023-05-07T13:25:56;4.20;;;1.40;;
21233;SDS011;10774;42.178;26.578;2023-05-07T13:28:22;2.22;;;1.10;;
21233;SDS011;10774;42.178;26.578;2023-05-07T13:30:48;4.00;;;1.10;;
21233;SDS011;10774;42.178;26.578;2023-05-07T13:33:14;3.05;;;1.20;;
21233;SDS011;10774;42.178;26.578;2023-05-07T13:35:41;2.40;;;1.10;;
21233;SDS011;10774;42.178;26.578;2023-05-07T13:38:06;4.63;;;1.30;;
21233;SDS011;10774;42.178;26.578;2023-05-07T13:40:33;6.15;;;1.40;;
21233;SDS011;10774;42.178;26.578;2023-05-07T13:42:58;2.53;;;1.35;;
21233;SDS011;10774;42.178;26.578;2023-05-07T13:45:26;4.57;;;1.73;;
21233;SDS011;10774;42.178;26.578;2023-05-07T13:47:54;4.50;;;1.25;;
21233;SDS011;10774;42.178;26.578;2023-05-07T13:50:20;3.65;;;1.30;;
21233;SDS011;10774;42.178;26.578;2023-05-07T13:52:45;3.10;;;1.15;;
21233;SDS011;10774;42.178;26.578;2023-05-07T13:55:16;5.05;;;1.20;;
21233;SDS011;10774;42.178;26.578;2023-05-07T13:57:42;4.05;;;1.10;;
21233;SDS011;10774;42.178;26.578;2023-05-07T14:00:08;2.72;;;1.00;;
21233;SDS011;10774;42.178;26.578;2023-05-07T14:02:34;4.10;;;1.35;;
21233;SDS011;10774;42.178;26.578;2023-05-07T14:04:59;3.70;;;1.60;;
21233;SDS011;10774;42.178;26.578;2023-05-07T14:07:25;4.82;;;1.40;;
21233;SDS011;10774;42.178;26.578;2023-05-07T14:09:50;4.35;;;1.33;;
21233;SDS011;10774;42.178;26.578;2023-05-07T14:12:16;5.95;;;1.20;;
21233;SDS011;10774;42.178;26.578;2023-05-07T14:14:41;3.30;;;1.40;;
21233;SDS011;10774;42.178;26.578;2023-05-07T14:17:07;4.80;;;1.73;;
21233;SDS011;10774;42.178;26.578;2023-05-07T14:19:33;4.35;;;1.40;;
21233;SDS011;10774;42.178;26.578;2023-05-07T14:21:58;3.75;;;1.50;;
21233;SDS011;10774;42.178;26.578;2023-05-07T14:24:24;4.65;;;1.40;;
21233;SDS011;10774;42.178;26.578;2023-05-07T14:26:49;4.20;;;1.23;;
21233;SDS011;10774;42.178;26.578;2023-05-07T14:29:15;2.38;;;1.15;;
21233;SDS011;10774;42.178;26.578;2023-05-07T14:31:43;3.20;;;1.40;;
21233;SDS011;10774;42.178;26.578;2023-05-07T14:34:09;3.00;;;1.10;;
21233;SDS011;10774;42.178;26.578;2023-05-07T14:36:35;4.82;;;1.30;;
21233;SDS011;10774;42.178;26.578;2023-05-07T14:39:00;4.07;;;1.42;;
21233;SDS011;10774;42.178;26.578;2023-05-07T14:41:26;5.00;;;1.00;;
21233;SDS011;10774;42.178;26.578;2023-05-07T14:43:51;2.03;;;1.10;;
21233;SDS011;10774;42.178;26.578;2023-05-07T14:46:17;3.92;;;1.20;;
21233;SDS011;10774;42.178;26.578;2023-05-07T14:48:46;3.03;;;1.25;;
21233;SDS011;10774;42.178;26.578;2023-05-07T14:51:12;4.75;;;1.35;;
21233;SDS011;10774;42.178;26.578;2023-05-07T14:53:38;2.67;;;1.40;;